createdAt,value
2019-03-13T00:03:25.974Z,994.80
2019-03-13T00:08:25.973Z,994.78
2019-03-13T00:13:25.025Z,994.75
2019-03-13T00:18:25.970Z,994.78
2019-03-13T00:23:27.134Z,994.83
2019-03-13T00:28:26.288Z,994.78
2019-03-13T00:33:25.290Z,994.86
2019-03-13T00:38:24.288Z,994.88
2019-03-13T00:43:23.179Z,994.78
2019-03-13T00:48:22.993Z,994.80
2019-03-13T00:53:22.945Z,994.83
2019-03-13T00:58:25.395Z,994.81
2019-03-13T01:03:23.020Z,994.81
2019-03-13T01:08:22.984Z,994.94
2019-03-13T01:13:22.962Z,994.83
2019-03-13T01:18:21.964Z,994.80
2019-03-13T01:23:21.994Z,994.75
2019-03-13T01:28:21.017Z,994.83
2019-03-13T01:33:20.306Z,994.74
2019-03-13T01:38:19.026Z,994.76
2019-03-13T01:43:17.991Z,994.79
2019-03-13T01:48:17.108Z,994.79
2019-03-13T01:53:18.097Z,994.66
2019-03-13T01:58:17.996Z,994.60
2019-03-13T02:03:18.044Z,994.49
2019-03-13T02:08:17.296Z,994.43
2019-03-13T02:13:18.116Z,994.35
2019-03-13T02:18:17.993Z,994.38
2019-03-13T02:23:16.994Z,994.35
2019-03-13T02:28:16.096Z,994.36
2019-03-13T02:33:16.183Z,994.30
2019-03-13T02:38:16.045Z,994.53
2019-03-13T02:43:16.098Z,994.45
2019-03-13T02:48:17.053Z,994.53
2019-03-13T02:53:16.231Z,994.54
2019-03-13T02:58:16.044Z,994.29
2019-03-13T03:03:15.999Z,994.24
2019-03-13T03:08:16.040Z,994.09
2019-03-13T03:13:15.021Z,994.25
2019-03-13T03:18:15.114Z,994.30
2019-03-13T03:23:14.991Z,993.86
2019-03-13T03:28:15.071Z,994.12
2019-03-13T03:33:14.040Z,994.02
2019-03-13T03:38:14.046Z,994.02
2019-03-13T03:43:14.196Z,994.05
2019-03-13T03:48:15.138Z,994.07
2019-03-13T03:53:15.054Z,994.16
2019-03-13T03:58:15.248Z,994.05
2019-03-13T04:03:14.010Z,994.21
2019-03-13T04:08:14.222Z,994.36
2019-03-13T04:13:14.224Z,994.34
2019-03-13T04:18:13.221Z,994.16
2019-03-13T04:23:13.148Z,994.32
2019-03-13T04:28:12.046Z,994.16
2019-03-13T04:33:12.071Z,994.21
2019-03-13T04:38:11.084Z,994.24
2019-03-13T04:43:10.154Z,994.16
2019-03-13T04:48:10.172Z,994.21
2019-03-13T04:53:11.156Z,994.13
2019-03-13T04:58:12.267Z,994.00
2019-03-13T05:03:11.141Z,994.08
2019-03-13T05:08:11.105Z,993.95
2019-03-13T05:13:10.238Z,994.00
2019-03-13T05:18:11.106Z,993.95
2019-03-13T05:23:11.203Z,993.95
2019-03-13T05:28:12.114Z,994.04
2019-03-13T05:33:12.077Z,994.06
2019-03-13T05:38:12.062Z,993.88
2019-03-13T05:43:12.125Z,993.91
2019-03-13T05:48:11.142Z,993.88
2019-03-13T05:53:11.093Z,993.83
2019-03-13T05:58:11.088Z,993.83
2019-03-13T06:03:10.138Z,993.88
2019-03-13T06:08:09.126Z,993.81
2019-03-13T06:13:08.765Z,994.07
2019-03-13T06:18:09.879Z,993.97
2019-03-13T06:23:09.123Z,993.97
2019-03-13T06:28:08.167Z,993.97
2019-03-13T06:33:08.101Z,993.97
2019-03-13T06:38:07.581Z,993.95
2019-03-13T06:43:07.140Z,994.02
2019-03-13T06:48:06.394Z,993.81
2019-03-13T06:53:06.142Z,993.91
2019-03-13T06:58:06.180Z,993.94
2019-03-13T07:03:05.233Z,993.78
2019-03-13T07:08:04.097Z,993.96
2019-03-13T07:13:03.187Z,993.70
2019-03-13T07:18:02.186Z,993.78
2019-03-13T07:23:02.135Z,993.91
2019-03-13T07:28:01.107Z,993.85
2019-03-13T07:33:01.300Z,993.71
2019-03-13T07:38:01.442Z,993.82
2019-03-13T07:43:02.162Z,993.72
2019-03-13T07:48:03.206Z,993.82
2019-03-13T07:53:02.295Z,993.85
2019-03-13T07:58:01.409Z,993.80
2019-03-13T08:03:02.127Z,993.77
2019-03-13T08:08:01.170Z,993.77
2019-03-13T08:13:01.171Z,993.57
2019-03-13T08:18:00.303Z,993.57
2019-03-13T08:23:01.144Z,993.70
2019-03-13T08:28:00.451Z,993.57
2019-03-13T08:33:01.230Z,993.63
2019-03-13T08:38:00.552Z,993.66
2019-03-13T08:43:01.183Z,993.66
2019-03-13T08:48:01.135Z,993.72
2019-03-13T08:53:00.199Z,993.59
2019-03-13T08:57:59.351Z,993.61
2019-03-13T09:02:59.468Z,993.77
2019-03-13T09:07:59.348Z,993.76
2019-03-13T09:13:01.751Z,993.66
2019-03-13T09:18:00.193Z,993.48
2019-03-13T09:23:00.450Z,993.52
2019-03-13T09:27:59.735Z,993.47
2019-03-13T09:32:59.225Z,993.44
2019-03-13T09:37:58.305Z,993.49
2019-03-13T09:42:58.267Z,993.33
2019-03-13T09:47:57.657Z,993.48
2019-03-13T09:52:57.421Z,993.32
2019-03-13T09:57:56.883Z,993.31
2019-03-13T10:07:57.330Z,993.38
2019-03-13T10:12:56.737Z,993.46
2019-03-13T10:17:56.467Z,993.40
2019-03-13T10:22:56.191Z,993.43
2019-03-13T10:27:56.386Z,993.28
2019-03-13T10:32:57.461Z,993.34
2019-03-13T10:37:57.268Z,993.43
2019-03-13T10:42:58.306Z,993.38
2019-03-13T10:47:58.303Z,993.28
2019-03-13T10:52:57.605Z,993.38
2019-03-13T10:57:57.439Z,993.25
2019-03-13T11:02:57.195Z,993.09
2019-03-13T11:07:58.434Z,993.14
2019-03-13T11:12:58.331Z,993.20
2019-03-13T11:17:58.314Z,993.25
2019-03-13T11:22:57.224Z,993.15
2019-03-13T11:27:58.448Z,993.15
2019-03-13T11:32:57.331Z,993.23
2019-03-13T11:37:56.414Z,993.29
2019-03-13T11:42:57.236Z,993.19
2019-03-13T11:47:58.457Z,993.10
2019-03-13T11:52:58.311Z,993.11
2019-03-13T11:57:57.368Z,993.10
2019-03-13T12:02:57.499Z,993.10
2019-03-13T12:07:57.251Z,992.95
2019-03-13T12:12:56.200Z,992.90
2019-03-13T12:17:55.279Z,992.92
2019-03-13T12:22:55.275Z,992.73
2019-03-13T12:27:55.364Z,992.63
2019-03-13T12:32:54.216Z,992.71
2019-03-13T12:37:54.509Z,992.68
2019-03-13T12:42:54.229Z,992.61
2019-03-13T12:47:53.568Z,992.58
2019-03-13T12:52:53.290Z,992.53
2019-03-13T12:57:52.423Z,992.52
2019-03-13T13:02:54.528Z,992.49
2019-03-13T13:07:50.250Z,992.44
2019-03-13T13:12:50.279Z,992.44
2019-03-13T13:17:50.434Z,992.39
2019-03-13T13:42:49.627Z,992.35
2019-03-13T13:47:48.462Z,992.29
2019-03-13T13:52:47.243Z,992.32
2019-03-13T13:57:46.364Z,992.09
2019-03-13T14:02:45.495Z,992.32
2019-03-13T14:07:45.358Z,992.11
2019-03-13T14:12:45.404Z,992.13
2019-03-13T14:17:44.517Z,992.13
2019-03-13T14:22:45.376Z,992.34
2019-03-13T14:27:44.272Z,992.50
2019-03-13T14:32:44.282Z,992.44
2019-03-13T14:37:44.312Z,992.63
2019-03-13T14:42:44.327Z,992.63
2019-03-13T14:47:43.371Z,992.55
2019-03-13T14:52:42.504Z,992.58
2019-03-13T15:02:43.576Z,992.65
2019-03-13T15:07:42.396Z,992.84
2019-03-13T15:12:43.046Z,993.00
2019-03-13T15:17:42.356Z,992.89
2019-03-13T15:22:41.395Z,992.73
2019-03-13T15:27:41.313Z,992.73
2019-03-13T15:32:42.365Z,992.79
2019-03-13T15:37:41.292Z,992.82
2019-03-13T15:42:41.661Z,992.90
2019-03-13T15:47:40.704Z,992.79
2019-03-13T15:52:39.566Z,992.74
2019-03-13T15:57:39.394Z,992.82
2019-03-13T16:02:39.372Z,992.90
2019-03-13T16:07:39.342Z,992.90
2019-03-13T16:12:38.736Z,992.87
2019-03-13T16:17:38.678Z,992.90
2019-03-13T16:22:38.835Z,993.00
2019-03-13T16:27:39.422Z,993.19
2019-03-13T16:32:43.889Z,993.29
2019-03-13T16:37:39.349Z,993.37
2019-03-13T16:42:38.661Z,993.34
2019-03-13T16:47:38.414Z,993.44
2019-03-13T16:52:38.381Z,993.49
2019-03-13T16:57:38.312Z,993.57
2019-03-13T17:02:37.715Z,993.44
2019-03-13T17:07:37.512Z,993.44
2019-03-13T17:12:37.393Z,993.57
2019-03-13T17:17:38.587Z,993.49
2019-03-13T17:22:38.366Z,993.64
2019-03-13T17:27:37.431Z,993.67
2019-03-13T17:32:37.340Z,993.67
2019-03-13T17:37:37.364Z,993.82
2019-03-13T17:42:36.359Z,993.74
2019-03-13T17:47:36.422Z,993.79
2019-03-13T17:52:36.341Z,993.84
2019-03-13T17:57:36.402Z,994.05
2019-03-13T18:02:36.464Z,994.19
2019-03-13T18:07:37.412Z,994.16
2019-03-13T18:12:37.502Z,994.11
2019-03-13T18:17:36.505Z,994.19
2019-03-13T18:22:36.460Z,994.32
2019-03-13T18:27:37.458Z,994.42
2019-03-13T18:32:41.605Z,994.46
2019-03-13T18:37:37.519Z,994.51
2019-03-13T18:42:37.408Z,994.62
2019-03-13T18:47:36.431Z,994.65
2019-03-13T18:52:35.409Z,994.83
2019-03-13T18:57:36.440Z,994.94
2019-03-13T19:02:35.503Z,994.99
2019-03-13T19:07:35.398Z,995.13
2019-03-13T19:12:35.442Z,995.31
2019-03-13T19:17:36.440Z,995.33
2019-03-13T19:22:36.471Z,995.41
2019-03-13T19:27:36.484Z,995.49
2019-03-13T19:32:35.454Z,995.49
2019-03-13T19:37:35.466Z,995.57
2019-03-13T19:42:36.928Z,995.67
2019-03-13T19:47:34.777Z,995.72
2019-03-13T19:52:33.581Z,995.94
2019-03-13T19:57:32.553Z,995.94
2019-03-13T20:02:31.516Z,996.02
2019-03-13T20:07:30.684Z,996.18
2019-03-13T20:12:30.690Z,996.20
2019-03-13T20:17:29.915Z,996.29
2019-03-13T20:22:30.516Z,996.40
2019-03-13T20:27:31.587Z,996.40
2019-03-13T20:32:31.533Z,996.53
2019-03-13T20:37:32.497Z,996.48
2019-03-13T20:47:31.755Z,996.61
2019-03-13T20:52:30.619Z,996.85
2019-03-13T20:57:31.532Z,996.90
2019-03-13T21:02:30.877Z,996.98
2019-03-13T21:07:30.564Z,997.11
2019-03-13T21:12:31.520Z,997.13
2019-03-13T21:17:31.660Z,997.21
2019-03-13T21:22:30.691Z,997.15
2019-03-13T21:27:29.761Z,997.12
2019-03-13T21:32:29.527Z,997.11
2019-03-13T21:37:30.498Z,997.24
2019-03-13T21:42:30.498Z,997.29
2019-03-13T21:47:29.543Z,997.45
2019-03-13T21:52:29.499Z,997.50
2019-03-13T21:57:30.469Z,997.55
2019-03-13T22:02:33.159Z,997.55
2019-03-13T22:07:29.339Z,997.58
2019-03-13T22:12:28.616Z,997.67
2019-03-13T22:17:28.342Z,997.72
2019-03-13T22:22:27.272Z,997.81
2019-03-13T22:27:27.332Z,997.88
2019-03-13T22:32:26.317Z,997.86
2019-03-13T22:37:26.446Z,998.04
2019-03-13T22:42:26.277Z,998.04
2019-03-13T22:47:27.287Z,998.04
2019-03-13T22:52:26.366Z,998.10
2019-03-13T22:57:26.255Z,998.26
2019-03-13T23:02:25.598Z,998.20
2019-03-13T23:07:25.290Z,998.34
2019-03-13T23:12:25.284Z,998.28
2019-03-13T23:17:25.294Z,998.31
2019-03-13T23:22:25.299Z,998.55
2019-03-13T23:27:25.340Z,998.65
2019-03-13T23:32:25.345Z,998.73
2019-03-13T23:37:25.317Z,998.76
2019-03-13T23:42:25.297Z,998.71
2019-03-13T23:47:24.295Z,998.81
2019-03-13T23:52:25.856Z,998.78
2019-03-13T23:57:23.593Z,998.84
